Schedule Details

Flight Number: CPX438
Departure: Philadelphia International Airport (KPHL) at N/A
Arrival: Chicago/Rockford International Airport (KRFD) at N/A
Route: PTW SARAA RAV PSB J60 JOT QUOTE


Current Weather Information
KPHL 180554Z 09006KT 7SM -RA BKN010 OVC018 02/01 A2990 RMK AO2 SLP125 P0003 60023 T00170006 10028 20011 56034 $
KRFD 180554Z 35009KT 3SM -SN BR OVC055 M07/M09 A3003 RMK AO2 SLP178 P0000 60003 T10671089 11039 21067 410221067 53022

Route Map